createdAt,value
2018-04-26T00:00:59.096Z,57.58
2018-04-26T00:03:27.204Z,57.47
2018-04-26T00:05:55.335Z,58.16
2018-04-26T00:08:23.489Z,58.12
2018-04-26T00:10:51.643Z,58.70
2018-04-26T00:13:19.747Z,58.29
2018-04-26T00:15:47.905Z,58.20
2018-04-26T00:18:16.021Z,59.17
2018-04-26T00:20:44.165Z,58.97
2018-04-26T00:23:12.308Z,58.91
2018-04-26T00:25:40.414Z,59.00
2018-04-26T00:28:08.550Z,59.33
2018-04-26T00:30:36.695Z,59.83
2018-04-26T00:33:04.823Z,60.23
2018-04-26T00:35:32.955Z,60.30
2018-04-26T00:38:01.121Z,60.43
2018-04-26T00:40:29.261Z,60.55
2018-04-26T00:42:57.788Z,60.62
2018-04-26T00:45:25.916Z,60.28
2018-04-26T00:47:54.084Z,60.14
2018-04-26T00:50:22.166Z,60.57
2018-04-26T00:52:50.332Z,60.92
2018-04-26T00:55:18.465Z,61.33
2018-04-26T00:57:46.616Z,61.38
2018-04-26T01:00:14.752Z,61.92
2018-04-26T01:02:42.895Z,61.23
2018-04-26T01:05:11.036Z,62.12
2018-04-26T01:07:39.173Z,61.92
2018-04-26T01:10:07.304Z,62.37
2018-04-26T01:12:35.438Z,62.47
2018-04-26T01:15:03.591Z,63.66
2018-04-26T01:17:31.784Z,63.34
2018-04-26T01:20:00.026Z,63.02
2018-04-26T01:22:28.151Z,63.04
2018-04-26T01:24:56.292Z,63.37
2018-04-26T01:27:24.427Z,63.86
2018-04-26T01:29:52.573Z,63.69
2018-04-26T01:32:20.698Z,63.98
2018-04-26T01:34:48.819Z,63.86
2018-04-26T01:37:28.673Z,63.55
2018-04-26T01:39:56.824Z,64.34
2018-04-26T01:42:24.947Z,64.43
2018-04-26T01:44:53.091Z,65.21
2018-04-26T01:47:21.221Z,65.10
2018-04-26T01:49:49.334Z,65.67
2018-04-26T01:52:17.460Z,65.43
2018-04-26T01:54:45.616Z,65.41
2018-04-26T01:57:13.725Z,65.86
2018-04-26T01:59:42.035Z,66.02
2018-04-26T02:02:10.158Z,65.94
2018-04-26T02:04:38.287Z,65.79
2018-04-26T02:07:06.410Z,65.76
2018-04-26T02:09:34.547Z,66.76
2018-04-26T02:12:02.701Z,66.20
2018-04-26T02:14:30.840Z,66.35
2018-04-26T02:16:58.984Z,67.06
2018-04-26T02:19:27.106Z,66.69
2018-04-26T02:21:55.248Z,68.12
2018-04-26T02:24:23.367Z,68.43
2018-04-26T02:26:51.499Z,67.67
2018-04-26T02:29:19.647Z,68.02
2018-04-26T02:31:47.775Z,68.37
2018-04-26T02:34:15.888Z,68.44
2018-04-26T02:36:44.070Z,68.82
2018-04-26T02:39:12.183Z,68.60
2018-04-26T02:41:40.304Z,68.05
2018-04-26T02:44:08.445Z,68.09
2018-04-26T02:46:36.557Z,69.78
2018-04-26T02:49:04.705Z,68.79
2018-04-26T02:51:32.841Z,68.58
2018-04-26T02:54:01.015Z,68.51
2018-04-26T02:56:29.128Z,69.46
2018-04-26T02:58:57.257Z,71.02
2018-04-26T03:01:25.389Z,73.21
2018-04-26T03:03:53.609Z,74.65
2018-04-26T03:06:21.976Z,76.92
2018-04-26T03:08:50.092Z,76.90
2018-04-26T03:11:18.222Z,77.30
2018-04-26T03:13:46.372Z,77.73
2018-04-26T03:16:14.519Z,78.41
2018-04-26T03:18:42.654Z,78.46
2018-04-26T03:21:10.796Z,78.34
2018-04-26T03:23:38.908Z,78.06
2018-04-26T03:26:07.047Z,79.20
2018-04-26T03:28:35.184Z,78.83
2018-04-26T03:31:03.459Z,78.45
2018-04-26T03:33:31.497Z,78.85
2018-04-26T03:35:59.854Z,78.53
2018-04-26T03:38:28.005Z,77.52
2018-04-26T03:40:56.131Z,77.28
2018-04-26T03:43:24.260Z,76.85
2018-04-26T03:45:52.407Z,75.72
2018-04-26T03:48:20.533Z,76.76
2018-04-26T03:50:48.849Z,77.17
2018-04-26T03:53:16.991Z,76.91
2018-04-26T03:55:45.122Z,76.34
2018-04-26T03:58:13.274Z,76.37
2018-04-26T04:00:53.246Z,76.25
2018-04-26T04:03:33.306Z,75.99
2018-04-26T04:06:13.284Z,76.12
2018-04-26T04:08:41.438Z,75.48
2018-04-26T04:11:09.547Z,74.95
2018-04-26T04:13:37.697Z,75.64
2018-04-26T04:16:06.066Z,75.13
2018-04-26T04:18:34.217Z,75.14
2018-04-26T04:21:02.360Z,75.70
2018-04-26T04:23:30.485Z,75.27
2018-04-26T04:25:58.622Z,75.08
2018-04-26T04:28:26.766Z,75.55
2018-04-26T04:30:54.918Z,75.41
2018-04-26T04:33:23.055Z,75.04
2018-04-26T04:35:51.396Z,74.95
2018-04-26T04:38:19.544Z,76.26
2018-04-26T04:40:47.667Z,74.72
2018-04-26T04:43:15.784Z,73.65
2018-04-26T04:45:43.968Z,74.23
2018-04-26T04:48:12.100Z,74.66
2018-04-26T04:50:44.070Z,74.86
2018-04-26T04:53:12.239Z,74.40
2018-04-26T04:55:40.387Z,74.19
2018-04-26T04:58:08.524Z,74.75
2018-04-26T05:00:36.884Z,74.05
2018-04-26T05:03:05.006Z,74.77
2018-04-26T05:05:33.130Z,74.82
2018-04-26T05:08:01.286Z,74.17
2018-04-26T05:10:29.405Z,73.62
2018-04-26T05:12:57.656Z,74.82
2018-04-26T05:15:25.802Z,75.43
2018-04-26T05:17:53.938Z,75.78
2018-04-26T05:20:22.064Z,76.37
2018-04-26T05:22:50.217Z,78.81
2018-04-26T05:25:18.329Z,80.33
2018-04-26T05:27:46.467Z,81.58
2018-04-26T05:30:14.620Z,81.60
2018-04-26T05:32:42.770Z,82.40
2018-04-26T05:35:10.902Z,81.29
2018-04-26T05:37:39.036Z,83.12
2018-04-26T05:40:07.171Z,85.71
2018-04-26T05:42:35.324Z,81.11
2018-04-26T05:45:03.465Z,78.53
2018-04-26T05:47:31.582Z,80.78
2018-04-26T05:49:59.710Z,82.44
2018-04-26T05:52:27.836Z,83.75
2018-04-26T05:54:55.973Z,84.43
2018-04-26T05:57:24.113Z,82.85
2018-04-26T05:59:52.264Z,83.42
2018-04-26T06:02:20.408Z,82.82
2018-04-26T06:04:48.538Z,83.62
2018-04-26T06:07:16.673Z,83.63
2018-04-26T06:09:44.802Z,82.92
2018-04-26T06:12:12.931Z,83.29
2018-04-26T06:14:41.165Z,82.84
2018-04-26T06:17:09.322Z,81.39
2018-04-26T06:19:37.400Z,82.80
2018-04-26T06:22:05.565Z,81.43
2018-04-26T06:24:33.671Z,82.06
2018-04-26T06:27:01.799Z,85.22
2018-04-26T06:29:29.999Z,84.67
2018-04-26T06:31:58.124Z,83.63
2018-04-26T06:34:26.269Z,81.82
2018-04-26T06:36:54.451Z,83.22
2018-04-26T06:39:22.554Z,83.75
2018-04-26T06:41:50.705Z,84.03
2018-04-26T06:44:18.919Z,84.74
2018-04-26T06:46:47.039Z,85.35
2018-04-26T06:49:15.177Z,83.02
2018-04-26T06:51:43.313Z,82.60
2018-04-26T06:54:11.457Z,83.84
2018-04-26T06:56:39.574Z,83.26
2018-04-26T06:59:07.729Z,83.29
2018-04-26T07:01:35.841Z,83.38
2018-04-26T07:04:04.122Z,84.02
2018-04-26T07:06:32.267Z,83.42
2018-04-26T07:09:00.380Z,83.69
2018-04-26T07:11:28.502Z,83.93
2018-04-26T07:13:56.654Z,83.61
2018-04-26T07:16:24.791Z,84.06
2018-04-26T07:18:52.941Z,83.01
2018-04-26T07:21:21.095Z,84.09
2018-04-26T07:23:49.223Z,81.97
2018-04-26T07:26:17.343Z,82.17
2018-04-26T07:28:45.511Z,82.63
2018-04-26T07:31:13.654Z,84.35
2018-04-26T07:33:41.787Z,83.89
2018-04-26T07:36:09.945Z,82.68
2018-04-26T07:38:38.094Z,82.40
2018-04-26T07:41:06.238Z,81.60
2018-04-26T07:43:34.389Z,81.92
2018-04-26T07:46:02.504Z,82.03
2018-04-26T07:48:30.632Z,81.03
2018-04-26T07:50:58.777Z,79.90
2018-04-26T07:53:26.896Z,80.62
2018-04-26T07:55:55.021Z,79.95
2018-04-26T07:58:23.169Z,78.56
2018-04-26T08:00:51.322Z,78.91
2018-04-26T08:03:19.486Z,79.23
2018-04-26T08:05:47.649Z,77.80
2018-04-26T08:08:15.777Z,77.49
2018-04-26T08:10:43.931Z,78.41
2018-04-26T08:13:12.164Z,77.91
2018-04-26T08:15:40.284Z,78.73
2018-04-26T08:18:09.288Z,77.00
2018-04-26T08:20:37.418Z,75.75
2018-04-26T08:23:05.568Z,75.29
2018-04-26T08:25:33.681Z,77.31
2018-04-26T08:28:01.825Z,76.99
2018-04-26T08:30:29.961Z,75.66
2018-04-26T08:32:58.270Z,74.01
2018-04-26T08:35:26.415Z,74.46
2018-04-26T08:37:54.581Z,73.32
2018-04-26T08:40:22.736Z,73.29
2018-04-26T08:42:50.876Z,71.87
2018-04-26T08:45:19.018Z,71.08
2018-04-26T08:47:47.147Z,70.04
2018-04-26T08:50:15.283Z,69.51
2018-04-26T08:52:43.433Z,68.85
2018-04-26T08:55:11.563Z,70.17
2018-04-26T08:57:39.696Z,69.51
2018-04-26T09:00:07.834Z,68.53
2018-04-26T09:02:35.975Z,68.11
2018-04-26T09:05:04.115Z,68.25
2018-04-26T09:07:32.255Z,68.33
2018-04-26T09:10:00.392Z,67.44
2018-04-26T09:12:28.602Z,67.00
2018-04-26T09:14:56.731Z,67.79
2018-04-26T09:17:25.356Z,68.16
2018-04-26T09:19:53.499Z,67.15
2018-04-26T09:22:22.217Z,66.51
2018-04-26T09:24:50.350Z,66.17
2018-04-26T09:27:18.516Z,66.69
2018-04-26T09:29:46.639Z,65.77
2018-04-26T09:32:14.792Z,66.36
2018-04-26T09:34:42.934Z,65.40
2018-04-26T09:37:11.062Z,65.74
2018-04-26T09:39:39.272Z,64.55
2018-04-26T09:42:07.617Z,63.06
2018-04-26T09:44:35.757Z,63.79
2018-04-26T09:47:03.883Z,64.33
2018-04-26T09:49:32.013Z,62.46
2018-04-26T09:52:00.168Z,62.72
2018-04-26T09:54:28.284Z,62.63
2018-04-26T09:56:56.437Z,61.41
2018-04-26T09:59:24.561Z,62.04
2018-04-26T10:01:58.252Z,62.62
2018-04-26T10:04:26.432Z,61.27
2018-04-26T10:06:59.552Z,61.07
2018-04-26T10:09:27.686Z,59.77
2018-04-26T10:11:55.818Z,59.22
2018-04-26T10:14:23.963Z,60.60
2018-04-26T10:16:52.096Z,60.59
2018-04-26T10:19:20.234Z,60.66
2018-04-26T10:21:48.356Z,60.42
2018-04-26T10:24:16.482Z,59.81
2018-04-26T10:26:44.594Z,57.71
2018-04-26T10:29:12.765Z,56.97
2018-04-26T10:31:40.889Z,56.78
2018-04-26T10:34:09.036Z,59.43
2018-04-26T10:36:37.162Z,58.98
2018-04-26T10:39:05.282Z,59.53
2018-04-26T10:41:33.406Z,58.15
2018-04-26T10:44:01.549Z,58.71
2018-04-26T10:46:29.692Z,57.25
2018-04-26T10:48:57.804Z,57.99
2018-04-26T10:51:25.936Z,57.97
2018-04-26T10:53:54.056Z,58.24
2018-04-26T10:56:22.195Z,57.56
2018-04-26T10:58:50.324Z,57.88
2018-04-26T11:01:18.448Z,57.79
2018-04-26T11:03:46.600Z,57.70
2018-04-26T11:06:14.767Z,57.51
2018-04-26T11:08:42.898Z,55.11
2018-04-26T11:11:11.076Z,56.10
2018-04-26T11:13:39.179Z,56.33
2018-04-26T11:16:07.293Z,54.84
2018-04-26T11:18:35.432Z,54.35
2018-04-26T11:21:03.586Z,55.06
2018-04-26T11:23:31.726Z,55.18
2018-04-26T11:25:59.910Z,54.34
2018-04-26T11:28:28.068Z,54.57
2018-04-26T11:30:56.243Z,52.86
2018-04-26T11:33:24.339Z,50.95
2018-04-26T11:35:52.480Z,50.87
2018-04-26T11:38:20.599Z,51.05
2018-04-26T11:40:48.727Z,52.27
2018-04-26T11:43:16.861Z,52.28
2018-04-26T11:45:44.996Z,53.05
2018-04-26T11:48:13.138Z,51.09
2018-04-26T11:50:41.270Z,50.89
2018-04-26T11:53:09.478Z,52.33
2018-04-26T11:55:37.618Z,52.90
2018-04-26T11:58:05.743Z,53.87
2018-04-26T12:00:33.879Z,54.69
2018-04-26T12:03:02.007Z,55.62
2018-04-26T12:05:30.156Z,53.45
2018-04-26T12:07:58.274Z,55.32
2018-04-26T12:10:26.390Z,54.98
2018-04-26T12:12:54.549Z,52.52
2018-04-26T12:15:22.684Z,51.72
2018-04-26T12:17:50.801Z,50.56
2018-04-26T12:20:18.937Z,52.37
2018-04-26T12:22:47.084Z,53.42
2018-04-26T12:25:15.198Z,51.45
2018-04-26T12:27:43.358Z,52.30
2018-04-26T12:30:11.486Z,50.60
2018-04-26T12:32:39.689Z,51.59
2018-04-26T12:35:07.988Z,51.54
2018-04-26T12:37:35.954Z,51.13
2018-04-26T12:40:04.091Z,49.33
2018-04-26T12:42:32.261Z,49.04
2018-04-26T12:45:00.384Z,49.20
2018-04-26T12:47:28.513Z,47.92
2018-04-26T12:49:56.672Z,48.04
2018-04-26T12:52:24.814Z,48.23
2018-04-26T12:54:52.920Z,48.56
2018-04-26T12:57:21.529Z,49.40
2018-04-26T12:59:49.677Z,48.89
2018-04-26T13:02:17.820Z,49.63
2018-04-26T13:04:45.959Z,50.22
2018-04-26T13:07:14.072Z,50.35
2018-04-26T13:09:42.195Z,50.54
2018-04-26T13:12:10.344Z,53.76
2018-04-26T13:14:38.496Z,60.62
2018-04-26T13:17:06.645Z,66.37
2018-04-26T13:19:34.760Z,69.84
2018-04-26T13:22:02.884Z,68.01
2018-04-26T13:24:31.084Z,68.34
2018-04-26T13:26:59.203Z,65.62
2018-04-26T13:29:27.339Z,65.57
2018-04-26T13:31:55.476Z,66.45
2018-04-26T13:34:23.609Z,69.49
2018-04-26T13:36:52.556Z,69.97
2018-04-26T13:39:20.687Z,66.69
2018-04-26T13:41:48.803Z,65.97
2018-04-26T13:44:16.945Z,66.45
2018-04-26T13:46:45.066Z,64.09
2018-04-26T13:49:13.196Z,64.07
2018-04-26T13:51:41.327Z,62.36
2018-04-26T13:54:09.464Z,63.07
2018-04-26T13:56:37.587Z,62.87
2018-04-26T13:59:05.712Z,59.82
2018-04-26T14:01:33.835Z,62.45
2018-04-26T14:04:01.993Z,62.44
2018-04-26T14:06:30.097Z,59.83
2018-04-26T14:08:58.240Z,60.45
2018-04-26T14:11:26.362Z,60.21
2018-04-26T14:13:54.472Z,60.57
2018-04-26T14:16:22.588Z,59.03
2018-04-26T14:18:50.730Z,57.87
2018-04-26T14:21:18.858Z,59.14
2018-04-26T14:23:46.980Z,57.20
2018-04-26T14:26:15.141Z,54.92
2018-04-26T14:28:43.266Z,53.21
2018-04-26T14:31:11.383Z,49.88
2018-04-26T14:33:39.532Z,50.40
2018-04-26T14:36:07.651Z,52.66
2018-04-26T14:38:35.765Z,53.89
2018-04-26T14:41:03.887Z,56.07
2018-04-26T14:43:32.031Z,54.83
2018-04-26T14:46:00.120Z,56.37
2018-04-26T14:48:28.264Z,54.90
2018-04-26T14:50:56.400Z,55.54
2018-04-26T14:53:24.605Z,54.02
2018-04-26T14:55:52.815Z,53.98
2018-04-26T14:58:20.928Z,54.50
2018-04-26T15:00:49.055Z,53.72
2018-04-26T15:03:17.212Z,55.09
2018-04-26T15:05:45.326Z,56.21
2018-04-26T15:08:13.454Z,56.87
2018-04-26T15:10:41.598Z,56.70
2018-04-26T15:13:09.710Z,52.13
2018-04-26T15:15:37.816Z,50.38
2018-04-26T15:18:06.037Z,50.86
2018-04-26T15:20:34.181Z,51.71
2018-04-26T15:23:02.313Z,53.09
2018-04-26T15:25:30.469Z,54.44
2018-04-26T15:27:58.663Z,53.90
2018-04-26T15:30:26.783Z,55.08
2018-04-26T15:32:54.950Z,55.98
2018-04-26T15:35:23.076Z,54.17
2018-04-26T15:37:51.204Z,55.11
2018-04-26T15:40:19.344Z,52.46
2018-04-26T15:42:47.466Z,50.79
2018-04-26T15:45:15.597Z,51.40
2018-04-26T15:47:43.724Z,52.83
2018-04-26T15:50:11.885Z,52.61
2018-04-26T15:52:57.586Z,52.94
2018-04-26T15:55:37.631Z,54.34
2018-04-26T16:01:34.114Z,53.09
2018-04-26T16:04:13.996Z,54.12
2018-04-26T16:06:53.865Z,53.38
2018-04-26T16:09:34.154Z,53.27
2018-04-26T16:15:32.253Z,51.84
2018-04-26T16:18:18.044Z,51.35
2018-04-26T16:24:26.783Z,51.19
2018-04-26T16:27:12.663Z,51.08
2018-04-26T16:29:52.620Z,51.29
2018-04-26T16:32:39.208Z,50.37
2018-04-26T16:35:21.084Z,50.55
2018-04-26T16:38:06.871Z,49.95
2018-04-26T16:40:35.071Z,50.24
2018-04-26T16:43:03.277Z,49.59
2018-04-26T16:45:31.491Z,51.25
2018-04-26T16:47:59.636Z,51.22
2018-04-26T16:50:27.766Z,49.47
2018-04-26T16:52:55.930Z,49.72
2018-04-26T16:55:24.230Z,49.28
2018-04-26T16:57:52.358Z,49.98
2018-04-26T17:00:20.484Z,49.87
2018-04-26T17:02:48.596Z,50.93
2018-04-26T17:05:16.720Z,50.75
2018-04-26T17:07:44.856Z,50.70
2018-04-26T17:10:12.961Z,51.42
2018-04-26T17:12:41.105Z,52.74
2018-04-26T17:15:09.253Z,53.76
2018-04-26T17:17:37.375Z,53.25
2018-04-26T17:20:05.498Z,52.90
2018-04-26T17:22:33.625Z,53.85
2018-04-26T17:25:01.743Z,53.41
2018-04-26T17:27:29.848Z,54.64
2018-04-26T17:29:58.029Z,55.11
2018-04-26T17:32:26.146Z,56.07
2018-04-26T17:34:54.281Z,57.41
2018-04-26T17:37:22.407Z,57.14
2018-04-26T17:39:50.512Z,57.75
2018-04-26T17:42:18.706Z,58.39
2018-04-26T17:44:46.770Z,57.87
2018-04-26T17:47:14.876Z,57.86
2018-04-26T17:49:43.000Z,57.71
2018-04-26T17:52:13.033Z,57.32
2018-04-26T17:54:41.158Z,57.55
2018-04-26T17:57:09.270Z,56.94
2018-04-26T17:59:37.408Z,56.21
2018-04-26T18:02:05.528Z,57.55
2018-04-26T18:04:33.637Z,56.38
2018-04-26T18:07:01.783Z,55.65
2018-04-26T18:09:29.943Z,55.38
2018-04-26T18:11:58.043Z,55.83
2018-04-26T18:14:26.182Z,56.34
2018-04-26T18:16:54.302Z,57.38
2018-04-26T18:19:22.441Z,57.79
2018-04-26T18:21:50.589Z,58.17
2018-04-26T18:24:18.716Z,57.05
2018-04-26T18:26:46.839Z,58.58
2018-04-26T18:29:14.985Z,57.61
2018-04-26T18:31:43.107Z,57.74
2018-04-26T18:34:11.226Z,57.84
2018-04-26T18:36:39.377Z,57.45
2018-04-26T18:39:07.500Z,58.93
2018-04-26T18:41:35.632Z,59.46
2018-04-26T18:44:03.770Z,61.26
2018-04-26T18:46:31.947Z,62.87
2018-04-26T18:49:00.006Z,63.67
2018-04-26T18:51:28.133Z,64.72
2018-04-26T18:53:56.255Z,64.45
2018-04-26T18:56:24.364Z,64.41
2018-04-26T18:58:52.502Z,64.46
2018-04-26T19:01:20.627Z,64.72
2018-04-26T19:03:48.736Z,64.84
2018-04-26T19:06:16.878Z,65.15
2018-04-26T19:08:45.024Z,64.99
2018-04-26T19:11:13.161Z,65.29
2018-04-26T19:13:41.321Z,65.61
2018-04-26T19:16:09.468Z,65.11
2018-04-26T19:18:37.597Z,65.48
2018-04-26T19:21:05.850Z,65.77
2018-04-26T19:23:34.042Z,66.94
2018-04-26T19:26:02.164Z,67.42
2018-04-26T19:28:30.313Z,67.61
2018-04-26T19:30:58.420Z,68.18
2018-04-26T19:33:26.552Z,68.26
2018-04-26T19:35:54.686Z,68.14
2018-04-26T19:38:22.828Z,68.07
2018-04-26T19:40:50.951Z,68.41
2018-04-26T19:43:19.101Z,69.08
2018-04-26T19:45:47.233Z,69.32
2018-04-26T19:48:15.340Z,68.99
2018-04-26T19:50:43.468Z,69.11
2018-04-26T19:53:11.594Z,69.13
2018-04-26T19:55:39.732Z,69.09
2018-04-26T19:58:07.852Z,69.39
2018-04-26T20:00:35.965Z,69.25
2018-04-26T20:03:04.111Z,69.54
2018-04-26T20:05:32.257Z,70.18
2018-04-26T20:08:00.377Z,70.57
2018-04-26T20:10:31.978Z,71.31
2018-04-26T20:13:00.103Z,70.86
2018-04-26T20:15:28.223Z,71.15
2018-04-26T20:17:56.335Z,70.33
2018-04-26T20:20:24.479Z,70.59
2018-04-26T20:22:52.645Z,71.07
2018-04-26T20:25:20.786Z,71.62
2018-04-26T20:27:48.921Z,71.27
2018-04-26T20:30:17.042Z,71.78
2018-04-26T20:32:45.185Z,72.15
2018-04-26T20:35:13.328Z,71.95
2018-04-26T20:37:41.436Z,72.62
2018-04-26T20:40:09.585Z,72.78
2018-04-26T20:42:37.737Z,72.07
2018-04-26T20:45:05.870Z,72.23
2018-04-26T20:47:33.991Z,72.19
2018-04-26T20:50:02.438Z,71.99
2018-04-26T20:52:30.623Z,71.83
2018-04-26T20:54:58.800Z,72.08
2018-04-26T20:57:27.020Z,72.02
2018-04-26T20:59:55.142Z,71.54
2018-04-26T21:02:23.434Z,72.02
2018-04-26T21:04:51.582Z,72.35
2018-04-26T21:07:19.759Z,73.01
2018-04-26T21:09:48.001Z,73.00
2018-04-26T21:12:16.223Z,73.03
2018-04-26T21:14:44.420Z,73.20
2018-04-26T21:17:12.626Z,72.68
2018-04-26T21:19:40.821Z,72.92
2018-04-26T21:22:09.018Z,72.71
2018-04-26T21:24:37.196Z,73.04
2018-04-26T21:27:05.674Z,74.34
2018-04-26T21:29:33.854Z,73.22
2018-04-26T21:32:02.039Z,73.82
2018-04-26T21:34:30.227Z,73.74
2018-04-26T21:36:58.406Z,74.01
2018-04-26T21:39:26.618Z,73.42
2018-04-26T21:41:54.822Z,73.44
2018-04-26T21:44:22.993Z,73.83
2018-04-26T21:46:51.164Z,73.47
2018-04-26T21:49:18.812Z,73.57
2018-04-26T21:51:52.645Z,74.16
2018-04-26T21:54:26.428Z,74.29
2018-04-26T21:57:00.273Z,73.89
2018-04-26T21:59:34.014Z,74.01
2018-04-26T22:02:07.751Z,73.75
2018-04-26T22:04:53.723Z,74.04
2018-04-26T22:07:21.910Z,74.44
2018-04-26T22:09:50.098Z,74.16
2018-04-26T22:12:18.482Z,73.47
2018-04-26T22:14:47.004Z,73.57
2018-04-26T22:17:15.226Z,74.46
2018-04-26T22:19:43.482Z,74.19
2018-04-26T22:22:14.602Z,74.15
2018-04-26T22:24:42.871Z,74.53
2018-04-26T22:27:11.119Z,74.80
2018-04-26T22:29:39.308Z,75.04
2018-04-26T22:32:07.526Z,75.27
2018-04-26T22:34:35.730Z,75.90
2018-04-26T22:37:03.919Z,75.28
2018-04-26T22:39:32.138Z,75.12
2018-04-26T22:42:00.426Z,75.26
2018-04-26T22:44:28.731Z,75.22
2018-04-26T22:46:56.983Z,74.82
2018-04-26T22:49:25.191Z,75.05
2018-04-26T22:51:53.404Z,74.97
2018-04-26T22:54:21.590Z,74.60
2018-04-26T22:56:49.835Z,75.43
2018-04-26T22:59:18.034Z,74.86
2018-04-26T23:01:46.226Z,75.57
2018-04-26T23:04:14.483Z,75.35
2018-04-26T23:06:42.720Z,76.36
2018-04-26T23:09:10.912Z,76.50
2018-04-26T23:11:39.146Z,76.62
2018-04-26T23:14:07.340Z,76.55
2018-04-26T23:16:35.531Z,76.25
2018-04-26T23:19:03.770Z,76.43
2018-04-26T23:21:31.950Z,76.45
2018-04-26T23:24:00.115Z,76.06
2018-04-26T23:26:28.315Z,76.07
2018-04-26T23:28:56.480Z,76.15
2018-04-26T23:31:24.671Z,76.38
2018-04-26T23:33:52.882Z,76.60
2018-04-26T23:36:21.074Z,76.16
2018-04-26T23:38:49.284Z,76.41
2018-04-26T23:41:17.522Z,75.96
2018-04-26T23:43:48.975Z,75.99
2018-04-26T23:46:17.138Z,76.47
2018-04-26T23:48:45.338Z,76.05
2018-04-26T23:51:13.519Z,75.65
2018-04-26T23:53:41.702Z,76.38
2018-04-26T23:56:09.875Z,76.57
2018-04-26T23:58:38.046Z,76.85
